Airfield :







YOU CAN JOIN US ON...

 
LOGIN :

Register | Disclaimer

   EN    FR    IT 

 









Legend :    VFR   Marginal VFR   IFR   Intensive IFR   Very Intensive IFR
Visi :
Ceiling :
>= 8 km
>= 3000ft
5 to 8 km
1000 to 3000 ft
1500m to 5 km
500 to 1000 ft
800 to 1500m
200 to 500 ft
< 800m
< 200 ft
Symbols :   Thunderstorms  Fog  Heavy snow  Heavy precipitations  Wind > 20 kt






- Airport Elevation : 118 ft
- IATA code : YUL


CYUL - Montréal - Pierre-Elliott-Trudeau Int.

CURRENT METAR :
  • 120200Z 26021G28KT 10SM DRSN VCSH FEW013 M05/M13 A3022 RMK SF1 SF TR SLP236

EXPIRED METARs :
  • 120100Z 26023G36KT 10SM DRSN FEW012 FEW035 SCT060 M05/M11 A3017 RMK SF1SC1SC3 SF TR SLP220
  • 120039Z 26019G30KT 5SM R24L/5000VP6000FT/D -SN BLSN FEW012 BKN040 M05/M07 A3017 RMK SF1SC6 PRESRR SLP221
  • 120031Z 26024G33KT 1SM R24L/P6000FT/D -SN BLSN BKN018 OVC035 M04/M08 A3017 RMK SN2SC5SC1 PRESRR SLP219
  • 120000Z 24018G25KT 15SM DRSN FEW025 FEW120 M04/M09 A3013 RMK SC1AC1 SC TR SLP205

TAF TAF CYUL
Valid from the 12 at 00:00 until the 13 at 00:00 UTC


112338Z 1200/1224 23015G25KT P6SM FEW012 BKN120
FM120030 23015G25KT P6SM -SHSN BKN040
TEMPO 1200/1202 11/2SM -SHSN OVC020
PROB30 1200/1202 3/4SM -SHSN
FM120200 25012G22KT P6SM SCT040
TEMPO 1202/1205 P6SM -SHSN BKN040
FM121000 26010KT P6SM BKN040
FM122100 22008KT P6SM SCT040 BKN120 RMK NXT FCST BY 120300Z
ATIS : ENG : +1 514-633-3037 FRA : +1 514-633-3034



MET'MAP, your aeronautical weather chart ! - Copyright ORBIFLY December 2007 - Disclaimer

ORBIFLY MET'MAP TEAM :

Programming & Development : Alexandra Zaïnal
Concept & original design : Baudouin d'Aumeries
Assistance for programming : Marc-Olivier Méhu
Technical & hardware support : Manuel Goepfert

Contact : metmap@orbifly.com




SOURCES & CREDITS :

   NOAA